Time;durP1;ratioP1;P1;durP2;ratioP2;P2;SDS_P1;SDS_P2;PMS_P1;PMS_P2;Temp;Humidity;BMP_temperature;BMP_pressure;BME280_temperature;BME280_humidity;BME280_pressure;Samples;Min_cycle;Max_cycle;Signal;HPM_P1;HPM_P2
2022/05/22 00:00:43;;;;;;;36.38;5.75;;;;;;;;;;5008536;28;97428;-72
2022/05/22 00:03:09;;;;;;;11.23;4.45;;;;;;;;;;5008184;28;95153;-73
2022/05/22 00:05:37;;;;;;;13.30;6.43;;;;;;;;;;4999940;28;98492;-74
2022/05/22 00:08:03;;;;;;;20.45;6.10;;;;;;;;;;5007264;28;95289;-72
2022/05/22 00:10:30;;;;;;;11.43;4.57;;;;;;;;;;5011315;28;96802;-74
2022/05/22 00:12:56;;;;;;;8.23;4.00;;;;;;;;;;4986644;28;95239;-73
2022/05/22 00:15:23;;;;;;;10.02;4.30;;;;;;;;;;4990204;28;95475;-74
2022/05/22 00:17:50;;;;;;;16.33;4.20;;;;;;;;;;5011019;28;95705;-74
2022/05/22 00:20:16;;;;;;;10.57;3.50;;;;;;;;;;5010775;28;96067;-72
2022/05/22 00:22:43;;;;;;;12.05;3.50;;;;;;;;;;5004113;28;96709;-74
2022/05/22 00:25:10;;;;;;;19.13;3.20;;;;;;;;;;4995932;28;96760;-72
2022/05/22 00:27:38;;;;;;;55.47;5.80;;;;;;;;;;5011131;28;95370;-74
2022/05/22 00:30:05;;;;;;;35.47;5.38;;;;;;;;;;5012104;28;96766;-72
2022/05/22 00:32:31;;;;;;;25.73;4.25;;;;;;;;;;5000180;28;97301;-75
2022/05/22 00:34:58;;;;;;;8.10;3.00;;;;;;;;;;4996947;28;95240;-74
2022/05/22 00:37:24;;;;;;;12.10;5.13;;;;;;;;;;5014499;28;96982;-72
2022/05/22 00:39:53;;;;;;;23.05;9.10;;;;;;;;;;5008870;28;97127;-75
2022/05/22 00:42:21;;;;;;;36.38;16.52;;;;;;;;;;5010152;28;96685;-74
2022/05/22 00:44:48;;;;;;;29.60;14.70;;;;;;;;;;5006125;28;96819;-74
2022/05/22 00:47:14;;;;;;;27.85;12.63;;;;;;;;;;5017532;28;96787;-73
2022/05/22 00:49:43;;;;;;;13.15;5.88;;;;;;;;;;5010224;28;95931;-74
2022/05/22 00:52:13;;;;;;;11.20;5.03;;;;;;;;;;5014308;28;97258;-73
2022/05/22 00:54:42;;;;;;;13.98;5.18;;;;;;;;;;5011622;28;95587;-73
2022/05/22 00:57:15;;;;;;;12.88;4.10;;;;;;;;;;5014107;28;96774;-72
2022/05/22 00:59:47;;;;;;;16.00;5.40;;;;;;;;;;5007691;28;97547;-74
2022/05/22 01:02:15;;;;;;;12.65;6.18;;;;;;;;;;5010897;28;95356;-73
2022/05/22 01:04:42;;;;;;;16.10;7.60;;;;;;;;;;5007140;28;98716;-74
2022/05/22 01:07:11;;;;;;;45.50;9.68;;;;;;;;;;5014330;28;97298;-75
2022/05/22 01:09:37;;;;;;;41.42;10.10;;;;;;;;;;5008179;28;95431;-73
2022/05/22 01:12:15;;;;;;;56.92;10.98;;;;;;;;;;4996533;28;97418;-74
2022/05/22 01:14:41;;;;;;;17.35;8.25;;;;;;;;;;4996496;28;95606;-73
2022/05/22 01:17:08;;;;;;;15.38;7.40;;;;;;;;;;5012768;28;97157;-73
2022/05/22 01:19:35;;;;;;;23.85;6.72;;;;;;;;;;4992103;28;97565;-71
2022/05/22 01:22:02;;;;;;;21.42;6.93;;;;;;;;;;5014333;28;95165;-71
2022/05/22 01:24:28;;;;;;;44.58;8.13;;;;;;;;;;4988892;28;96815;-72
2022/05/22 01:26:57;;;;;;;10.98;3.63;;;;;;;;;;5010908;28;97323;-70
2022/05/22 01:29:24;;;;;;;9.13;3.00;;;;;;;;;;5000413;28;95927;-70
2022/05/22 01:31:50;;;;;;;14.50;3.15;;;;;;;;;;5015706;28;96088;-71
2022/05/22 01:34:17;;;;;;;11.10;2.97;;;;;;;;;;5003436;28;96393;-72
2022/05/22 01:36:43;;;;;;;6.88;2.33;;;;;;;;;;5014327;28;96896;-71
2022/05/22 01:39:09;;;;;;;17.27;2.70;;;;;;;;;;5013137;28;96991;-71
2022/05/22 01:41:36;;;;;;;17.77;3.13;;;;;;;;;;5013179;28;95945;-71
2022/05/22 01:44:03;;;;;;;22.77;3.78;;;;;;;;;;5001728;28;96842;-71
2022/05/22 01:46:29;;;;;;;8.23;3.38;;;;;;;;;;4995082;28;97297;-72
2022/05/22 01:48:56;;;;;;;7.32;2.65;;;;;;;;;;5013596;28;95264;-72
2022/05/22 01:51:22;;;;;;;6.38;2.67;;;;;;;;;;5013841;28;96765;-71
2022/05/22 01:53:48;;;;;;;10.23;2.58;;;;;;;;;;5012315;28;97232;-71
2022/05/22 01:56:15;;;;;;;7.88;2.60;;;;;;;;;;5041340;27;96263;-71
2022/05/22 01:58:42;;;;;;;7.75;2.55;;;;;;;;;;5013149;28;97674;-70
2022/05/22 02:01:08;;;;;;;47.67;3.60;;;;;;;;;;5012570;28;96607;-71
2022/05/22 02:03:34;;;;;;;8.02;2.85;;;;;;;;;;5012465;28;96725;-71
2022/05/22 02:06:01;;;;;;;9.52;2.78;;;;;;;;;;5011264;28;99131;-71
2022/05/22 02:08:27;;;;;;;10.15;2.80;;;;;;;;;;5011884;28;96920;-73
2022/05/22 02:11:01;;;;;;;6.25;2.33;;;;;;;;;;5012785;28;95769;-73
2022/05/22 02:13:30;;;;;;;11.23;2.50;;;;;;;;;;5015906;28;97432;-73
2022/05/22 02:15:56;;;;;;;6.30;2.03;;;;;;;;;;4990869;28;97450;-72
2022/05/22 02:18:23;;;;;;;12.45;2.72;;;;;;;;;;5013007;28;97683;-72
2022/05/22 02:20:49;;;;;;;10.05;2.40;;;;;;;;;;5013175;28;95284;-72
2022/05/22 02:23:16;;;;;;;20.52;2.90;;;;;;;;;;5012734;28;95928;-72
2022/05/22 02:25:44;;;;;;;13.40;2.80;;;;;;;;;;4992501;28;97266;-72
2022/05/22 02:28:14;;;;;;;10.75;2.70;;;;;;;;;;5012274;28;95135;-72
2022/05/22 02:30:42;;;;;;;10.85;2.58;;;;;;;;;;5013019;28;96795;-72
2022/05/22 02:33:10;;;;;;;14.00;2.42;;;;;;;;;;5012959;28;97314;-71
2022/05/22 02:35:37;;;;;;;3.83;1.95;;;;;;;;;;5002812;28;95575;-72
2022/05/22 02:38:03;;;;;;;11.38;2.67;;;;;;;;;;5008816;28;97496;-71
2022/05/22 02:40:31;;;;;;;11.00;2.03;;;;;;;;;;5012339;28;95737;-72
2022/05/22 02:42:58;;;;;;;11.20;2.03;;;;;;;;;;5011610;28;96669;-71
2022/05/22 02:45:26;;;;;;;12.20;2.80;;;;;;;;;;4999683;28;96296;-71
2022/05/22 02:47:52;;;;;;;11.43;2.42;;;;;;;;;;5003723;28;95356;-73
2022/05/22 02:50:21;;;;;;;7.10;1.90;;;;;;;;;;5011507;28;96811;-73
2022/05/22 02:52:48;;;;;;;8.95;2.35;;;;;;;;;;5011567;28;97342;-72
2022/05/22 02:55:16;;;;;;;6.07;1.70;;;;;;;;;;5008714;28;96524;-72
2022/05/22 02:57:43;;;;;;;2.30;1.58;;;;;;;;;;5010624;28;96888;-73
2022/05/22 03:00:13;;;;;;;1.92;1.20;;;;;;;;;;5006401;28;95514;-70
2022/05/22 03:02:40;;;;;;;3.78;1.70;;;;;;;;;;5012688;28;99396;-72
2022/05/22 03:05:07;;;;;;;1.58;1.10;;;;;;;;;;5010189;28;97287;-72
2022/05/22 03:07:36;;;;;;;2.05;1.27;;;;;;;;;;5006343;28;95314;-72
2022/05/22 03:10:05;;;;;;;7.60;1.70;;;;;;;;;;5012031;28;96819;-72
2022/05/22 03:12:31;;;;;;;6.90;1.83;;;;;;;;;;5011606;28;97389;-73
2022/05/22 03:14:59;;;;;;;3.88;2.00;;;;;;;;;;5012635;28;95353;-74
2022/05/22 03:17:25;;;;;;;1.85;1.30;;;;;;;;;;4990875;28;96830;-72
2022/05/22 03:19:52;;;;;;;1.63;1.05;;;;;;;;;;5000807;28;97347;-73
2022/05/22 03:22:19;;;;;;;0.52;0.52;;;;;;;;;;4990093;28;96778;-72
2022/05/22 03:24:45;;;;;;;0.98;0.80;;;;;;;;;;5011174;28;96573;-74
2022/05/22 03:27:13;;;;;;;0.60;0.60;;;;;;;;;;5005717;28;95252;-72
2022/05/22 03:29:40;;;;;;;0.52;0.52;;;;;;;;;;4991790;28;96744;-72
2022/05/22 03:32:08;;;;;;;0.98;0.75;;;;;;;;;;5009803;28;97414;-73
2022/05/22 03:34:35;;;;;;;0.50;0.50;;;;;;;;;;5011849;28;97171;-74
2022/05/22 03:37:02;;;;;;;0.52;0.52;;;;;;;;;;4999587;28;96754;-73
2022/05/22 03:39:29;;;;;;;0.90;0.90;;;;;;;;;;5010992;28;97110;-72
2022/05/22 03:42:00;;;;;;;0.50;0.50;;;;;;;;;;5005828;28;95221;-73
2022/05/22 03:44:27;;;;;;;0.40;0.40;;;;;;;;;;5000055;28;97271;-72
2022/05/22 03:46:54;;;;;;;0.40;0.40;;;;;;;;;;5011352;28;95344;-73
2022/05/22 03:49:20;;;;;;;0.30;0.30;;;;;;;;;;5012054;28;96680;-73
2022/05/22 03:51:46;;;;;;;0.50;0.50;;;;;;;;;;5009091;28;96703;-73
2022/05/22 03:54:13;;;;;;;0.50;0.50;;;;;;;;;;5011728;28;95586;-72
2022/05/22 03:56:40;;;;;;;0.45;0.45;;;;;;;;;;5011583;28;97140;-73
2022/05/22 03:59:11;;;;;;;1.52;0.70;;;;;;;;;;5010914;28;97230;-73
2022/05/22 04:01:37;;;;;;;0.47;0.40;;;;;;;;;;5007735;28;95256;-71
2022/05/22 04:04:04;;;;;;;0.60;0.60;;;;;;;;;;5006455;28;96755;-71
2022/05/22 04:06:30;;;;;;;0.40;0.40;;;;;;;;;;5014007;28;95506;-73
2022/05/22 04:08:57;;;;;;;0.40;0.40;;;;;;;;;;5014725;28;96824;-72
2022/05/22 04:11:23;;;;;;;0.40;0.40;;;;;;;;;;5014613;28;97378;-71
2022/05/22 04:13:50;;;;;;;0.57;0.50;;;;;;;;;;5009093;28;95472;-72
2022/05/22 04:16:16;;;;;;;0.40;0.40;;;;;;;;;;5002817;28;98128;-71
2022/05/22 04:18:43;;;;;;;3.30;0.40;;;;;;;;;;5015127;28;97179;-71
2022/05/22 04:21:09;;;;;;;0.50;0.50;;;;;;;;;;5013178;28;95430;-71
2022/05/22 04:26:21;;;;;;;0.40;0.40;;;;;;;;;;5005225;28;95314;-71
2022/05/22 04:28:47;;;;;;;0.40;0.40;;;;;;;;;;5014607;28;97320;-72
2022/05/22 04:31:14;;;;;;;0.40;0.40;;;;;;;;;;5014338;28;97523;-74
2022/05/22 04:33:40;;;;;;;0.50;0.50;;;;;;;;;;5000090;28;95328;-72
2022/05/22 04:36:07;;;;;;;0.50;0.50;;;;;;;;;;5014724;28;96908;-71
2022/05/22 04:38:33;;;;;;;0.50;0.50;;;;;;;;;;5014433;28;97498;-71
2022/05/22 04:41:01;;;;;;;0.30;0.30;;;;;;;;;;5014760;28;96181;-71
2022/05/22 04:43:28;;;;;;;0.80;0.57;;;;;;;;;;4999452;28;96176;-71
2022/05/22 04:45:55;;;;;;;0.60;0.60;;;;;;;;;;5017946;28;97308;-73
2022/05/22 04:48:22;;;;;;;0.50;0.50;;;;;;;;;;5008825;28;96865;-71
2022/05/22 19:45:11;;;;;;;2.08;1.50;;;;;;;;;;5009659;28;97143;-72
2022/05/22 19:47:38;;;;;;;3.05;1.75;;;;;;;;;;5008322;28;95262;-72
2022/05/22 19:50:05;;;;;;;2.05;1.45;;;;;;;;;;5009437;28;95024;-72
2022/05/22 19:52:32;;;;;;;1.95;1.35;;;;;;;;;;5009605;28;97243;-72
2022/05/22 20:00:29;;;;;;;5.82;2.75;;;;;;;;;;5012069;28;96189;-72
2022/05/22 20:02:57;;;;;;;4.95;2.63;;;;;;;;;;5027708;28;95122;-71
2022/05/22 20:05:23;;;;;;;5.78;3.08;;;;;;;;;;5015023;28;97326;-72
2022/05/22 20:07:51;;;;;;;5.60;2.92;;;;;;;;;;5018546;28;95156;-71
2022/05/22 20:10:19;;;;;;;6.60;2.85;;;;;;;;;;5021331;28;96912;-74
2022/05/22 20:12:46;;;;;;;5.22;2.80;;;;;;;;;;5013759;28;97466;-71
2022/05/22 20:15:13;;;;;;;5.78;3.30;;;;;;;;;;5018492;28;95449;-72
2022/05/22 20:17:40;;;;;;;5.93;3.17;;;;;;;;;;5019727;28;96372;-71
2022/05/22 20:20:07;;;;;;;6.28;2.80;;;;;;;;;;5021217;28;97345;-72
2022/05/22 20:22:33;;;;;;;6.22;2.60;;;;;;;;;;5022688;28;95442;-73
2022/05/22 20:24:59;;;;;;;5.35;2.63;;;;;;;;;;5015203;28;96794;-71
2022/05/22 20:27:26;;;;;;;7.32;2.83;;;;;;;;;;5022057;28;95348;-72
2022/05/22 20:29:52;;;;;;;4.90;2.63;;;;;;;;;;5019421;28;96529;-72
2022/05/22 20:32:19;;;;;;;7.45;2.47;;;;;;;;;;5023003;28;96342;-73
2022/05/22 20:34:45;;;;;;;5.50;2.30;;;;;;;;;;5015216;28;95406;-71
2022/05/22 20:37:11;;;;;;;5.20;2.80;;;;;;;;;;5009163;28;96748;-73
2022/05/22 20:39:38;;;;;;;3.67;2.08;;;;;;;;;;5015088;28;96251;-72
2022/05/22 20:42:04;;;;;;;5.30;2.55;;;;;;;;;;5017231;28;95194;-74
2022/05/22 20:44:40;;;;;;;3.72;2.03;;;;;;;;;;5012986;28;96840;-74
2022/05/22 20:47:07;;;;;;;4.32;2.25;;;;;;;;;;5024793;28;97748;-74
2022/05/22 20:49:33;;;;;;;5.20;2.35;;;;;;;;;;5015152;28;96743;-73
2022/05/22 20:52:00;;;;;;;5.63;2.58;;;;;;;;;;5013690;28;97226;-74
2022/05/22 20:54:26;;;;;;;4.93;2.50;;;;;;;;;;4993649;28;95732;-74
2022/05/22 20:56:52;;;;;;;4.22;2.28;;;;;;;;;;5010238;28;96647;-74
2022/05/22 20:59:33;;;;;;;3.40;1.98;;;;;;;;;;4994533;28;97363;-74
2022/05/22 21:02:02;;;;;;;2.58;1.70;;;;;;;;;;4995660;28;95234;-72
2022/05/22 21:04:29;;;;;;;5.53;2.13;;;;;;;;;;4993589;28;97215;-73
2022/05/22 21:06:57;;;;;;;5.38;1.80;;;;;;;;;;4992534;28;97290;-74
2022/05/22 21:09:24;;;;;;;3.42;1.77;;;;;;;;;;4992659;28;95330;-80
2022/05/22 21:11:52;;;;;;;4.85;1.70;;;;;;;;;;4999405;28;97806;-72
2022/05/22 21:14:19;;;;;;;5.18;1.92;;;;;;;;;;4990591;28;96647;-72
2022/05/22 21:16:45;;;;;;;3.25;1.80;;;;;;;;;;4992886;28;96864;-71
2022/05/22 21:19:12;;;;;;;4.50;1.50;;;;;;;;;;4989381;28;97250;-74
2022/05/22 21:21:39;;;;;;;2.88;1.60;;;;;;;;;;4990457;28;95426;-73
2022/05/22 21:29:36;;;;;;;2.38;1.42;;;;;;;;;;4989873;28;95272;-73
2022/05/22 21:32:02;;;;;;;2.58;1.67;;;;;;;;;;5013043;28;96727;-71
2022/05/22 21:34:29;;;;;;;2.47;1.60;;;;;;;;;;4994193;28;95091;-73
2022/05/22 21:36:56;;;;;;;2.63;1.60;;;;;;;;;;4994163;28;97085;-71
2022/05/22 21:39:22;;;;;;;2.58;1.48;;;;;;;;;;4994035;28;96655;-72
2022/05/22 21:41:49;;;;;;;3.80;1.60;;;;;;;;;;4988498;28;95310;-72
2022/05/22 21:44:20;;;;;;;5.38;1.35;;;;;;;;;;4979448;28;96568;-71
2022/05/22 21:46:46;;;;;;;2.75;1.60;;;;;;;;;;4978791;28;96944;-70
2022/05/22 21:49:13;;;;;;;2.88;1.52;;;;;;;;;;4983294;28;95391;-74
2022/05/22 21:51:39;;;;;;;5.28;1.80;;;;;;;;;;4980038;28;95944;-71
2022/05/22 21:54:06;;;;;;;3.50;1.40;;;;;;;;;;4984489;28;95259;-71
2022/05/22 21:56:32;;;;;;;2.92;1.50;;;;;;;;;;4978199;28;96921;-72
2022/05/22 21:58:59;;;;;;;4.95;1.80;;;;;;;;;;4980911;28;97779;-71
2022/05/22 22:01:26;;;;;;;5.30;1.70;;;;;;;;;;4992499;28;96793;-70
2022/05/22 22:03:52;;;;;;;2.58;1.48;;;;;;;;;;4983994;28;95747;-70
2022/05/22 22:06:19;;;;;;;4.70;1.90;;;;;;;;;;4979305;28;97322;-70
2022/05/22 22:08:46;;;;;;;2.38;1.50;;;;;;;;;;4986443;28;95288;-72
2022/05/22 22:11:13;;;;;;;4.32;1.50;;;;;;;;;;4977920;28;96744;-72
2022/05/22 22:13:40;;;;;;;2.03;1.50;;;;;;;;;;4982110;28;96649;-72
2022/05/22 22:16:06;;;;;;;4.25;1.63;;;;;;;;;;4988843;28;96796;-72
2022/05/22 22:18:32;;;;;;;2.00;1.40;;;;;;;;;;4989802;28;96870;-74
2022/05/22 22:21:01;;;;;;;2.60;1.40;;;;;;;;;;4979154;28;95312;-72
2022/05/22 22:23:29;;;;;;;3.03;1.80;;;;;;;;;;4977606;28;97045;-72
2022/05/22 22:25:55;;;;;;;1.80;1.42;;;;;;;;;;4978788;28;97414;-70
2022/05/22 22:28:22;;;;;;;3.08;1.70;;;;;;;;;;4980735;28;95371;-72
2022/05/22 22:30:48;;;;;;;1.88;1.38;;;;;;;;;;4977605;28;96808;-72
2022/05/22 22:33:15;;;;;;;2.78;1.60;;;;;;;;;;4982429;28;97390;-71
2022/05/22 22:35:42;;;;;;;2.45;1.50;;;;;;;;;;4984309;28;95323;-71
2022/05/22 22:38:09;;;;;;;2.63;1.60;;;;;;;;;;4979926;28;98618;-71
2022/05/22 22:40:35;;;;;;;2.58;1.50;;;;;;;;;;4989712;28;96876;-73
2022/05/22 22:43:03;;;;;;;2.55;1.33;;;;;;;;;;5009952;28;96789;-73
2022/05/22 22:45:30;;;;;;;4.13;1.63;;;;;;;;;;4976010;28;97548;-71
2022/05/22 22:47:57;;;;;;;7.22;1.77;;;;;;;;;;4978205;28;95285;-74
2022/05/22 22:50:24;;;;;;;4.30;1.70;;;;;;;;;;4983209;28;96925;-74
2022/05/22 22:52:54;;;;;;;3.42;1.92;;;;;;;;;;4977222;28;97116;-73
2022/05/22 22:58:09;;;;;;;3.05;1.70;;;;;;;;;;4984901;28;96428;-71
2022/05/22 23:00:39;;;;;;;2.75;1.42;;;;;;;;;;4978251;28;95584;-72
2022/05/22 23:03:06;;;;;;;2.90;1.60;;;;;;;;;;4979268;28;96814;-73
2022/05/22 23:05:32;;;;;;;1.75;1.30;;;;;;;;;;4978297;28;97369;-72
2022/05/22 23:08:01;;;;;;;2.55;1.60;;;;;;;;;;4999121;28;95820;-71
2022/05/22 23:10:28;;;;;;;3.55;1.85;;;;;;;;;;4980674;28;95103;-71
2022/05/22 23:12:55;;;;;;;1.60;1.40;;;;;;;;;;4976615;28;97304;-71
2022/05/22 23:15:21;;;;;;;2.50;1.52;;;;;;;;;;4977167;28;95342;-73
2022/05/22 23:17:48;;;;;;;2.40;1.60;;;;;;;;;;5012412;28;96824;-73
2022/05/22 23:20:15;;;;;;;2.95;1.60;;;;;;;;;;4981518;28;97252;-72
2022/05/22 23:22:41;;;;;;;2.40;1.50;;;;;;;;;;5017514;28;97323;-73
2022/05/22 23:25:08;;;;;;;5.43;1.70;;;;;;;;;;4983557;28;97346;-71
2022/05/22 23:27:47;;;;;;;2.15;1.40;;;;;;;;;;4983238;28;96761;-72
2022/05/22 23:30:13;;;;;;;3.28;1.50;;;;;;;;;;4985343;28;97703;-73
2022/05/22 23:32:40;;;;;;;5.10;1.60;;;;;;;;;;4986169;28;95606;-71
2022/05/22 23:35:07;;;;;;;3.28;1.67;;;;;;;;;;4991627;28;96753;-72
2022/05/22 23:37:36;;;;;;;4.95;1.60;;;;;;;;;;4983639;28;97264;-71
2022/05/22 23:40:02;;;;;;;2.38;1.55;;;;;;;;;;5000826;28;97525;-71
2022/05/22 23:42:29;;;;;;;1.95;1.50;;;;;;;;;;4989126;28;97302;-71
2022/05/22 23:44:55;;;;;;;3.17;1.58;;;;;;;;;;4992180;28;97642;-73
2022/05/22 23:47:22;;;;;;;3.15;1.55;;;;;;;;;;4986274;28;96920;-72
2022/05/22 23:49:48;;;;;;;3.63;1.65;;;;;;;;;;4988286;28;96768;-74
2022/05/22 23:52:16;;;;;;;2.42;1.50;;;;;;;;;;4985440;28;96334;-73
2022/05/22 23:54:47;;;;;;;4.85;1.60;;;;;;;;;;4985551;28;96783;-73
2022/05/22 23:57:14;;;;;;;2.40;1.43;;;;;;;;;;4984990;28;96980;-71
2022/05/22 23:59:40;;;;;;;3.10;1.80;;;;;;;;;;4987968;28;97410;-72
